sensor_id;sensor_type;location;lat;lon;timestamp;P1;durP1;ratioP1;P2;durP2;ratioP2
18838;SDS011;9548;56.920;14.804;2022-08-18T00:00:28;10.63;;;9.52;;
18838;SDS011;9548;56.920;14.804;2022-08-18T00:02:55;10.13;;;9.02;;
18838;SDS011;9548;56.920;14.804;2022-08-18T00:05:27;10.98;;;9.73;;
18838;SDS011;9548;56.920;14.804;2022-08-18T00:07:54;10.98;;;9.77;;
18838;SDS011;9548;56.920;14.804;2022-08-18T00:10:21;9.68;;;8.68;;
18838;SDS011;9548;56.920;14.804;2022-08-18T00:12:48;12.15;;;9.18;;
18838;SDS011;9548;56.920;14.804;2022-08-18T00:15:16;12.15;;;9.43;;
18838;SDS011;9548;56.920;14.804;2022-08-18T00:17:45;10.27;;;9.18;;
18838;SDS011;9548;56.920;14.804;2022-08-18T00:20:14;9.82;;;8.82;;
18838;SDS011;9548;56.920;14.804;2022-08-18T00:22:42;11.20;;;9.38;;
18838;SDS011;9548;56.920;14.804;2022-08-18T00:25:10;9.77;;;8.70;;
18838;SDS011;9548;56.920;14.804;2022-08-18T00:27:38;9.93;;;8.55;;
18838;SDS011;9548;56.920;14.804;2022-08-18T00:30:06;10.40;;;9.40;;
18838;SDS011;9548;56.920;14.804;2022-08-18T00:32:37;10.13;;;9.13;;
18838;SDS011;9548;56.920;14.804;2022-08-18T00:35:06;9.38;;;8.43;;
18838;SDS011;9548;56.920;14.804;2022-08-18T00:37:37;11.15;;;9.35;;
18838;SDS011;9548;56.920;14.804;2022-08-18T00:40:05;11.27;;;9.30;;
18838;SDS011;9548;56.920;14.804;2022-08-18T00:42:36;12.40;;;10.60;;
18838;SDS011;9548;56.920;14.804;2022-08-18T00:45:09;11.70;;;9.40;;
18838;SDS011;9548;56.920;14.804;2022-08-18T00:47:41;12.32;;;9.68;;
18838;SDS011;9548;56.920;14.804;2022-08-18T00:50:14;10.65;;;9.15;;
18838;SDS011;9548;56.920;14.804;2022-08-18T00:52:49;13.48;;;10.57;;
18838;SDS011;9548;56.920;14.804;2022-08-18T00:55:19;12.10;;;10.00;;
18838;SDS011;9548;56.920;14.804;2022-08-18T00:57:47;13.35;;;10.20;;
18838;SDS011;9548;56.920;14.804;2022-08-18T01:00:17;13.18;;;9.50;;
18838;SDS011;9548;56.920;14.804;2022-08-18T01:02:46;13.15;;;9.10;;
18838;SDS011;9548;56.920;14.804;2022-08-18T01:05:20;11.75;;;10.43;;
18838;SDS011;9548;56.920;14.804;2022-08-18T01:07:51;10.98;;;9.20;;
18838;SDS011;9548;56.920;14.804;2022-08-18T01:10:19;12.00;;;9.70;;
18838;SDS011;9548;56.920;14.804;2022-08-18T01:12:49;11.00;;;8.77;;
18838;SDS011;9548;56.920;14.804;2022-08-18T01:15:18;11.57;;;9.32;;
18838;SDS011;9548;56.920;14.804;2022-08-18T01:17:48;10.63;;;9.32;;
18838;SDS011;9548;56.920;14.804;2022-08-18T01:20:34;11.05;;;9.10;;
18838;SDS011;9548;56.920;14.804;2022-08-18T01:23:25;11.98;;;10.25;;
18838;SDS011;9548;56.920;14.804;2022-08-18T01:25:53;10.48;;;9.43;;
18838;SDS011;9548;56.920;14.804;2022-08-18T01:28:28;9.80;;;8.80;;
18838;SDS011;9548;56.920;14.804;2022-08-18T01:30:56;10.32;;;9.00;;
18838;SDS011;9548;56.920;14.804;2022-08-18T01:33:25;10.75;;;8.63;;
18838;SDS011;9548;56.920;14.804;2022-08-18T01:35:57;9.45;;;8.52;;
18838;SDS011;9548;56.920;14.804;2022-08-18T01:38:29;12.38;;;9.52;;
18838;SDS011;9548;56.920;14.804;2022-08-18T01:40:56;14.60;;;10.20;;
18838;SDS011;9548;56.920;14.804;2022-08-18T01:43:24;13.65;;;10.20;;
18838;SDS011;9548;56.920;14.804;2022-08-18T01:45:51;13.05;;;10.30;;
18838;SDS011;9548;56.920;14.804;2022-08-18T01:48:25;10.98;;;9.75;;
18838;SDS011;9548;56.920;14.804;2022-08-18T01:50:52;11.80;;;9.98;;
18838;SDS011;9548;56.920;14.804;2022-08-18T01:53:21;13.18;;;10.50;;
18838;SDS011;9548;56.920;14.804;2022-08-18T01:55:49;11.40;;;10.05;;
18838;SDS011;9548;56.920;14.804;2022-08-18T01:58:16;12.93;;;9.90;;
18838;SDS011;9548;56.920;14.804;2022-08-18T02:00:43;11.27;;;9.55;;
18838;SDS011;9548;56.920;14.804;2022-08-18T02:03:11;11.68;;;10.05;;
18838;SDS011;9548;56.920;14.804;2022-08-18T02:05:41;14.15;;;10.00;;
18838;SDS011;9548;56.920;14.804;2022-08-18T02:08:13;13.90;;;9.60;;
18838;SDS011;9548;56.920;14.804;2022-08-18T02:10:40;10.70;;;9.48;;
18838;SDS011;9548;56.920;14.804;2022-08-18T02:13:09;10.60;;;9.50;;
18838;SDS011;9548;56.920;14.804;2022-08-18T02:15:37;11.20;;;9.85;;
18838;SDS011;9548;56.920;14.804;2022-08-18T02:18:04;12.68;;;10.05;;
18838;SDS011;9548;56.920;14.804;2022-08-18T02:20:31;10.23;;;9.23;;
18838;SDS011;9548;56.920;14.804;2022-08-18T02:22:58;10.43;;;9.23;;
18838;SDS011;9548;56.920;14.804;2022-08-18T02:25:27;10.60;;;9.15;;
18838;SDS011;9548;56.920;14.804;2022-08-18T02:27:55;12.82;;;10.15;;
18838;SDS011;9548;56.920;14.804;2022-08-18T02:30:23;12.00;;;9.98;;
18838;SDS011;9548;56.920;14.804;2022-08-18T02:32:50;10.68;;;9.35;;
18838;SDS011;9548;56.920;14.804;2022-08-18T02:35:17;10.98;;;9.77;;
18838;SDS011;9548;56.920;14.804;2022-08-18T02:37:44;10.80;;;9.60;;
18838;SDS011;9548;56.920;14.804;2022-08-18T02:40:12;10.13;;;9.10;;
18838;SDS011;9548;56.920;14.804;2022-08-18T02:42:39;9.40;;;8.40;;
18838;SDS011;9548;56.920;14.804;2022-08-18T02:45:06;9.25;;;8.30;;
18838;SDS011;9548;56.920;14.804;2022-08-18T02:47:35;10.70;;;8.77;;
18838;SDS011;9548;56.920;14.804;2022-08-18T02:50:02;9.77;;;8.60;;
18838;SDS011;9548;56.920;14.804;2022-08-18T02:52:30;10.20;;;8.75;;
18838;SDS011;9548;56.920;14.804;2022-08-18T02:54:57;10.30;;;9.15;;
18838;SDS011;9548;56.920;14.804;2022-08-18T02:57:26;11.90;;;9.07;;
18838;SDS011;9548;56.920;14.804;2022-08-18T02:59:54;10.25;;;9.15;;
18838;SDS011;9548;56.920;14.804;2022-08-18T03:02:21;10.95;;;8.85;;
18838;SDS011;9548;56.920;14.804;2022-08-18T03:04:49;14.38;;;9.50;;
18838;SDS011;9548;56.920;14.804;2022-08-18T03:07:17;12.25;;;9.48;;
18838;SDS011;9548;56.920;14.804;2022-08-18T03:09:44;10.98;;;9.73;;
18838;SDS011;9548;56.920;14.804;2022-08-18T03:12:10;13.80;;;10.63;;
18838;SDS011;9548;56.920;14.804;2022-08-18T03:14:38;10.52;;;9.43;;
18838;SDS011;9548;56.920;14.804;2022-08-18T03:17:05;9.70;;;8.70;;
18838;SDS011;9548;56.920;14.804;2022-08-18T03:19:34;10.35;;;8.88;;
18838;SDS011;9548;56.920;14.804;2022-08-18T03:22:03;13.75;;;9.15;;
18838;SDS011;9548;56.920;14.804;2022-08-18T03:24:33;11.43;;;9.43;;
18838;SDS011;9548;56.920;14.804;2022-08-18T03:27:02;12.38;;;9.82;;
18838;SDS011;9548;56.920;14.804;2022-08-18T03:29:31;11.15;;;9.68;;
18838;SDS011;9548;56.920;14.804;2022-08-18T03:31:59;10.82;;;9.73;;
18838;SDS011;9548;56.920;14.804;2022-08-18T03:34:26;13.15;;;9.50;;
18838;SDS011;9548;56.920;14.804;2022-08-18T03:36:54;11.27;;;10.07;;
18838;SDS011;9548;56.920;14.804;2022-08-18T03:39:22;14.43;;;10.27;;
18838;SDS011;9548;56.920;14.804;2022-08-18T03:41:52;11.65;;;10.35;;
18838;SDS011;9548;56.920;14.804;2022-08-18T03:44:20;10.30;;;9.20;;
18838;SDS011;9548;56.920;14.804;2022-08-18T03:46:49;11.93;;;10.20;;
18838;SDS011;9548;56.920;14.804;2022-08-18T03:49:17;11.35;;;10.15;;
18838;SDS011;9548;56.920;14.804;2022-08-18T03:51:45;13.15;;;11.07;;
18838;SDS011;9548;56.920;14.804;2022-08-18T03:54:13;11.80;;;10.45;;
18838;SDS011;9548;56.920;14.804;2022-08-18T03:56:43;13.82;;;10.60;;
18838;SDS011;9548;56.920;14.804;2022-08-18T03:59:12;11.63;;;9.98;;
18838;SDS011;9548;56.920;14.804;2022-08-18T04:01:42;12.57;;;9.68;;
18838;SDS011;9548;56.920;14.804;2022-08-18T04:04:11;10.85;;;9.40;;
18838;SDS011;9548;56.920;14.804;2022-08-18T04:06:40;13.63;;;10.30;;
18838;SDS011;9548;56.920;14.804;2022-08-18T04:09:09;13.13;;;10.38;;
18838;SDS011;9548;56.920;14.804;2022-08-18T04:11:40;12.02;;;9.90;;
18838;SDS011;9548;56.920;14.804;2022-08-18T04:14:10;12.63;;;10.70;;
18838;SDS011;9548;56.920;14.804;2022-08-18T04:16:39;11.27;;;10.07;;
18838;SDS011;9548;56.920;14.804;2022-08-18T04:19:07;13.00;;;10.65;;
18838;SDS011;9548;56.920;14.804;2022-08-18T04:21:38;11.77;;;9.95;;
18838;SDS011;9548;56.920;14.804;2022-08-18T04:24:06;13.40;;;9.55;;
18838;SDS011;9548;56.920;14.804;2022-08-18T04:26:36;12.63;;;10.13;;
18838;SDS011;9548;56.920;14.804;2022-08-18T04:29:06;12.95;;;10.07;;
18838;SDS011;9548;56.920;14.804;2022-08-18T04:31:34;13.05;;;10.75;;
18838;SDS011;9548;56.920;14.804;2022-08-18T04:34:02;13.60;;;10.60;;
18838;SDS011;9548;56.920;14.804;2022-08-18T04:36:29;14.10;;;10.75;;
18838;SDS011;9548;56.920;14.804;2022-08-18T04:38:58;11.65;;;10.32;;
18838;SDS011;9548;56.920;14.804;2022-08-18T04:41:25;12.98;;;11.52;;
18838;SDS011;9548;56.920;14.804;2022-08-18T04:43:53;13.65;;;10.63;;
18838;SDS011;9548;56.920;14.804;2022-08-18T04:46:23;14.20;;;10.40;;
18838;SDS011;9548;56.920;14.804;2022-08-18T04:48:51;11.43;;;10.20;;
18838;SDS011;9548;56.920;14.804;2022-08-18T04:51:20;13.80;;;10.50;;
18838;SDS011;9548;56.920;14.804;2022-08-18T04:53:47;12.38;;;9.90;;
18838;SDS011;9548;56.920;14.804;2022-08-18T04:56:15;11.65;;;10.43;;
18838;SDS011;9548;56.920;14.804;2022-08-18T04:58:50;12.15;;;10.43;;
18838;SDS011;9548;56.920;14.804;2022-08-18T05:01:19;14.43;;;9.48;;
18838;SDS011;9548;56.920;14.804;2022-08-18T05:03:50;10.57;;;9.48;;
18838;SDS011;9548;56.920;14.804;2022-08-18T05:06:19;11.48;;;10.20;;
18838;SDS011;9548;56.920;14.804;2022-08-18T05:08:49;15.93;;;9.30;;
18838;SDS011;9548;56.920;14.804;2022-08-18T05:11:17;11.07;;;9.23;;
18838;SDS011;9548;56.920;14.804;2022-08-18T05:13:45;10.23;;;9.18;;
18838;SDS011;9548;56.920;14.804;2022-08-18T05:16:12;11.45;;;9.05;;
18838;SDS011;9548;56.920;14.804;2022-08-18T05:18:40;8.98;;;8.05;;
18838;SDS011;9548;56.920;14.804;2022-08-18T05:21:08;9.82;;;8.80;;
18838;SDS011;9548;56.920;14.804;2022-08-18T05:23:39;10.20;;;8.50;;
18838;SDS011;9548;56.920;14.804;2022-08-18T05:26:07;9.95;;;8.80;;
18838;SDS011;9548;56.920;14.804;2022-08-18T05:28:35;10.02;;;9.02;;
18838;SDS011;9548;56.920;14.804;2022-08-18T05:31:06;9.68;;;8.68;;
18838;SDS011;9548;56.920;14.804;2022-08-18T05:33:35;9.27;;;7.90;;
18838;SDS011;9548;56.920;14.804;2022-08-18T05:36:04;8.13;;;7.32;;
18838;SDS011;9548;56.920;14.804;2022-08-18T05:38:40;9.52;;;8.60;;
18838;SDS011;9548;56.920;14.804;2022-08-18T05:41:20;9.00;;;8.10;;
18838;SDS011;9548;56.920;14.804;2022-08-18T05:43:50;10.60;;;8.18;;
18838;SDS011;9548;56.920;14.804;2022-08-18T05:46:17;8.20;;;7.40;;
18838;SDS011;9548;56.920;14.804;2022-08-18T05:48:47;9.20;;;7.63;;
18838;SDS011;9548;56.920;14.804;2022-08-18T05:51:15;9.75;;;8.05;;
18838;SDS011;9548;56.920;14.804;2022-08-18T05:53:52;9.02;;;7.70;;
18838;SDS011;9548;56.920;14.804;2022-08-18T05:56:37;9.32;;;7.10;;
18838;SDS011;9548;56.920;14.804;2022-08-18T05:59:21;8.80;;;7.70;;
18838;SDS011;9548;56.920;14.804;2022-08-18T06:01:52;9.55;;;7.32;;
18838;SDS011;9548;56.920;14.804;2022-08-18T06:04:29;9.57;;;8.27;;
18838;SDS011;9548;56.920;14.804;2022-08-18T06:07:06;10.23;;;7.32;;
18838;SDS011;9548;56.920;14.804;2022-08-18T06:09:39;9.57;;;7.53;;
18838;SDS011;9548;56.920;14.804;2022-08-18T06:12:12;8.55;;;7.65;;
18838;SDS011;9548;56.920;14.804;2022-08-18T06:14:46;8.00;;;7.22;;
18838;SDS011;9548;56.920;14.804;2022-08-18T06:17:22;8.13;;;7.32;;
18838;SDS011;9548;56.920;14.804;2022-08-18T06:20:08;8.30;;;7.22;;
18838;SDS011;9548;56.920;14.804;2022-08-18T06:22:48;7.97;;;7.18;;
18838;SDS011;9548;56.920;14.804;2022-08-18T06:25:29;10.50;;;7.32;;
18838;SDS011;9548;56.920;14.804;2022-08-18T06:28:04;8.05;;;7.25;;
18838;SDS011;9548;56.920;14.804;2022-08-18T06:30:43;9.32;;;7.35;;
18838;SDS011;9548;56.920;14.804;2022-08-18T06:33:16;8.70;;;7.30;;
18838;SDS011;9548;56.920;14.804;2022-08-18T06:35:58;8.52;;;7.72;;
18838;SDS011;9548;56.920;14.804;2022-08-18T06:38:34;8.25;;;7.45;;
18838;SDS011;9548;56.920;14.804;2022-08-18T06:41:16;9.73;;;7.40;;
18838;SDS011;9548;56.920;14.804;2022-08-18T06:43:49;8.25;;;7.00;;
18838;SDS011;9548;56.920;14.804;2022-08-18T06:46:27;8.52;;;7.63;;
18838;SDS011;9548;56.920;14.804;2022-08-18T06:49:02;8.02;;;7.30;;
18838;SDS011;9548;56.920;14.804;2022-08-18T06:51:32;8.40;;;7.57;;
18838;SDS011;9548;56.920;14.804;2022-08-18T06:54:00;8.57;;;7.68;;
18838;SDS011;9548;56.920;14.804;2022-08-18T06:56:33;8.30;;;7.40;;
18838;SDS011;9548;56.920;14.804;2022-08-18T06:59:16;12.45;;;7.20;;
18838;SDS011;9548;56.920;14.804;2022-08-18T07:01:46;9.25;;;7.63;;
18838;SDS011;9548;56.920;14.804;2022-08-18T07:04:29;8.82;;;7.80;;
18838;SDS011;9548;56.920;14.804;2022-08-18T07:07:30;8.75;;;7.55;;
18838;SDS011;9548;56.920;14.804;2022-08-18T07:10:00;8.68;;;7.07;;
18838;SDS011;9548;56.920;14.804;2022-08-18T07:12:28;7.50;;;6.72;;
18838;SDS011;9548;56.920;14.804;2022-08-18T07:14:56;7.80;;;7.05;;
18838;SDS011;9548;56.920;14.804;2022-08-18T07:17:26;8.73;;;7.30;;
18838;SDS011;9548;56.920;14.804;2022-08-18T07:19:55;9.40;;;7.20;;
18838;SDS011;9548;56.920;14.804;2022-08-18T07:22:25;8.93;;;6.90;;
18838;SDS011;9548;56.920;14.804;2022-08-18T07:24:52;8.10;;;7.30;;
18838;SDS011;9548;56.920;14.804;2022-08-18T07:30:26;8.93;;;7.28;;
18838;SDS011;9548;56.920;14.804;2022-08-18T07:32:59;8.52;;;7.07;;
18838;SDS011;9548;56.920;14.804;2022-08-18T07:35:39;11.73;;;6.97;;
18838;SDS011;9548;56.920;14.804;2022-08-18T07:38:10;11.80;;;7.03;;
18838;SDS011;9548;56.920;14.804;2022-08-18T07:40:44;8.75;;;7.07;;
18838;SDS011;9548;56.920;14.804;2022-08-18T07:43:18;7.20;;;6.55;;
18838;SDS011;9548;56.920;14.804;2022-08-18T07:45:53;7.45;;;6.72;;
18838;SDS011;9548;56.920;14.804;2022-08-18T07:48:36;7.43;;;6.55;;
18838;SDS011;9548;56.920;14.804;2022-08-18T07:51:05;8.18;;;6.50;;
18838;SDS011;9548;56.920;14.804;2022-08-18T07:53:43;6.53;;;5.68;;
18838;SDS011;9548;56.920;14.804;2022-08-18T07:56:16;6.70;;;5.40;;
18838;SDS011;9548;56.920;14.804;2022-08-18T07:58:48;9.20;;;6.13;;
18838;SDS011;9548;56.920;14.804;2022-08-18T08:01:22;8.02;;;6.07;;
18838;SDS011;9548;56.920;14.804;2022-08-18T08:03:58;8.60;;;6.32;;
18838;SDS011;9548;56.920;14.804;2022-08-18T08:06:32;6.47;;;5.88;;
18838;SDS011;9548;56.920;14.804;2022-08-18T08:09:09;7.25;;;6.05;;
18838;SDS011;9548;56.920;14.804;2022-08-18T08:11:46;7.28;;;5.93;;
18838;SDS011;9548;56.920;14.804;2022-08-18T08:17:11;10.40;;;5.78;;
18838;SDS011;9548;56.920;14.804;2022-08-18T08:22:37;8.05;;;5.75;;
18838;SDS011;9548;56.920;14.804;2022-08-18T08:25:12;6.32;;;5.65;;
18838;SDS011;9548;56.920;14.804;2022-08-18T08:27:51;6.65;;;5.95;;
18838;SDS011;9548;56.920;14.804;2022-08-18T08:30:32;6.80;;;6.10;;
18838;SDS011;9548;56.920;14.804;2022-08-18T08:33:06;6.50;;;5.90;;
18838;SDS011;9548;56.920;14.804;2022-08-18T08:35:49;6.45;;;5.85;;
18838;SDS011;9548;56.920;14.804;2022-08-18T08:38:24;8.73;;;5.95;;
18838;SDS011;9548;56.920;14.804;2022-08-18T08:40:58;7.20;;;6.50;;
18838;SDS011;9548;56.920;14.804;2022-08-18T08:43:29;6.60;;;6.00;;
18838;SDS011;9548;56.920;14.804;2022-08-18T08:46:04;8.95;;;6.20;;
18838;SDS011;9548;56.920;14.804;2022-08-18T08:48:38;7.40;;;6.22;;
18838;SDS011;9548;56.920;14.804;2022-08-18T08:51:15;9.73;;;6.38;;
18838;SDS011;9548;56.920;14.804;2022-08-18T08:53:53;6.40;;;5.80;;
18838;SDS011;9548;56.920;14.804;2022-08-18T08:56:25;6.78;;;6.18;;
18838;SDS011;9548;56.920;14.804;2022-08-18T08:58:56;6.15;;;5.30;;
18838;SDS011;9548;56.920;14.804;2022-08-18T09:01:28;6.28;;;5.68;;
18838;SDS011;9548;56.920;14.804;2022-08-18T09:04:04;9.15;;;6.70;;
18838;SDS011;9548;56.920;14.804;2022-08-18T09:06:46;8.82;;;6.50;;
18838;SDS011;9548;56.920;14.804;2022-08-18T09:09:21;6.93;;;6.22;;
18838;SDS011;9548;56.920;14.804;2022-08-18T09:15:12;7.72;;;6.20;;
18838;SDS011;9548;56.920;14.804;2022-08-18T09:17:53;7.40;;;6.47;;
18838;SDS011;9548;56.920;14.804;2022-08-18T09:20:51;6.78;;;6.05;;
18838;SDS011;9548;56.920;14.804;2022-08-18T09:23:24;8.73;;;5.93;;
18838;SDS011;9548;56.920;14.804;2022-08-18T09:25:54;7.18;;;5.95;;
18838;SDS011;9548;56.920;14.804;2022-08-18T09:28:38;7.05;;;6.10;;
18838;SDS011;9548;56.920;14.804;2022-08-18T09:31:21;10.25;;;6.00;;
18838;SDS011;9548;56.920;14.804;2022-08-18T09:34:02;7.90;;;5.95;;
18838;SDS011;9548;56.920;14.804;2022-08-18T09:36:59;6.22;;;5.70;;
18838;SDS011;9548;56.920;14.804;2022-08-18T09:39:38;8.38;;;5.72;;
18838;SDS011;9548;56.920;14.804;2022-08-18T09:42:30;9.43;;;6.13;;
18838;SDS011;9548;56.920;14.804;2022-08-18T09:45:03;6.22;;;5.50;;
18838;SDS011;9548;56.920;14.804;2022-08-18T09:50:35;6.93;;;6.22;;
18838;SDS011;9548;56.920;14.804;2022-08-18T09:53:31;8.65;;;6.25;;
18838;SDS011;9548;56.920;14.804;2022-08-18T09:56:03;6.68;;;6.05;;
18838;SDS011;9548;56.920;14.804;2022-08-18T09:58:47;8.13;;;6.25;;
18838;SDS011;9548;56.920;14.804;2022-08-18T10:01:20;8.02;;;6.10;;
18838;SDS011;9548;56.920;14.804;2022-08-18T10:04:17;9.88;;;6.25;;
18838;SDS011;9548;56.920;14.804;2022-08-18T10:06:52;6.95;;;6.25;;
18838;SDS011;9548;56.920;14.804;2022-08-18T10:12:14;9.55;;;5.85;;
18838;SDS011;9548;56.920;14.804;2022-08-18T10:14:55;10.15;;;5.85;;
18838;SDS011;9548;56.920;14.804;2022-08-18T10:17:42;7.10;;;6.40;;
18838;SDS011;9548;56.920;14.804;2022-08-18T10:20:24;7.60;;;6.30;;
18838;SDS011;9548;56.920;14.804;2022-08-18T10:23:00;9.48;;;6.43;;
18838;SDS011;9548;56.920;14.804;2022-08-18T10:25:31;7.28;;;6.57;;
18838;SDS011;9548;56.920;14.804;2022-08-18T10:28:00;8.35;;;6.60;;
18838;SDS011;9548;56.920;14.804;2022-08-18T10:30:43;9.90;;;6.60;;
18838;SDS011;9548;56.920;14.804;2022-08-18T10:33:13;8.32;;;6.50;;
18838;SDS011;9548;56.920;14.804;2022-08-18T10:36:31;9.35;;;6.50;;
18838;SDS011;9548;56.920;14.804;2022-08-18T10:39:04;8.20;;;6.72;;
18838;SDS011;9548;56.920;14.804;2022-08-18T10:41:34;7.45;;;6.75;;
18838;SDS011;9548;56.920;14.804;2022-08-18T10:44:12;8.13;;;6.35;;
18838;SDS011;9548;56.920;14.804;2022-08-18T10:46:41;10.82;;;6.75;;
18838;SDS011;9548;56.920;14.804;2022-08-18T10:49:20;9.13;;;6.78;;
18838;SDS011;9548;56.920;14.804;2022-08-18T10:51:54;8.40;;;6.85;;
18838;SDS011;9548;56.920;14.804;2022-08-18T10:54:48;7.10;;;6.28;;
18838;SDS011;9548;56.920;14.804;2022-08-18T10:57:34;7.72;;;6.43;;
18838;SDS011;9548;56.920;14.804;2022-08-18T11:00:17;7.60;;;6.50;;
18838;SDS011;9548;56.920;14.804;2022-08-18T11:02:52;7.28;;;6.30;;
18838;SDS011;9548;56.920;14.804;2022-08-18T11:05:30;7.22;;;6.07;;
18838;SDS011;9548;56.920;14.804;2022-08-18T11:07:58;8.77;;;6.53;;
18838;SDS011;9548;56.920;14.804;2022-08-18T11:10:36;11.50;;;6.15;;
18838;SDS011;9548;56.920;14.804;2022-08-18T11:13:09;6.75;;;6.07;;
18838;SDS011;9548;56.920;14.804;2022-08-18T11:15:47;10.18;;;6.28;;
18838;SDS011;9548;56.920;14.804;2022-08-18T11:18:27;8.50;;;6.35;;
18838;SDS011;9548;56.920;14.804;2022-08-18T11:24:00;10.63;;;5.82;;
18838;SDS011;9548;56.920;14.804;2022-08-18T11:26:29;6.15;;;5.55;;
18838;SDS011;9548;56.920;14.804;2022-08-18T11:28:57;9.75;;;5.50;;
18838;SDS011;9548;56.920;14.804;2022-08-18T11:31:24;7.90;;;5.80;;
18838;SDS011;9548;56.920;14.804;2022-08-18T11:33:52;5.50;;;4.90;;
18838;SDS011;9548;56.920;14.804;2022-08-18T11:36:27;6.18;;;5.60;;
18838;SDS011;9548;56.920;14.804;2022-08-18T11:38:55;5.68;;;4.95;;
18838;SDS011;9548;56.920;14.804;2022-08-18T11:41:24;7.18;;;4.20;;
18838;SDS011;9548;56.920;14.804;2022-08-18T11:43:54;8.07;;;4.30;;
18838;SDS011;9548;56.920;14.804;2022-08-18T11:46:27;7.00;;;4.45;;
18838;SDS011;9548;56.920;14.804;2022-08-18T11:48:58;6.72;;;3.97;;
18838;SDS011;9548;56.920;14.804;2022-08-18T11:51:26;7.47;;;4.30;;
18838;SDS011;9548;56.920;14.804;2022-08-18T11:53:56;6.68;;;3.58;;
18838;SDS011;9548;56.920;14.804;2022-08-18T11:56:25;4.50;;;4.10;;
18838;SDS011;9548;56.920;14.804;2022-08-18T11:58:55;8.45;;;3.88;;
18838;SDS011;9548;56.920;14.804;2022-08-18T12:01:28;4.60;;;3.92;;
18838;SDS011;9548;56.920;14.804;2022-08-18T12:04:07;4.20;;;3.90;;
18838;SDS011;9548;56.920;14.804;2022-08-18T12:06:48;4.20;;;3.85;;
18838;SDS011;9548;56.920;14.804;2022-08-18T12:09:24;4.20;;;3.72;;
18838;SDS011;9548;56.920;14.804;2022-08-18T12:11:58;6.50;;;4.10;;
18838;SDS011;9548;56.920;14.804;2022-08-18T12:14:28;4.22;;;3.88;;
18838;SDS011;9548;56.920;14.804;2022-08-18T12:16:58;4.53;;;4.10;;
18838;SDS011;9548;56.920;14.804;2022-08-18T12:19:26;5.28;;;3.60;;
18838;SDS011;9548;56.920;14.804;2022-08-18T12:21:55;4.88;;;3.80;;
18838;SDS011;9548;56.920;14.804;2022-08-18T12:24:25;4.80;;;4.18;;
18838;SDS011;9548;56.920;14.804;2022-08-18T12:26:53;7.22;;;4.30;;
18838;SDS011;9548;56.920;14.804;2022-08-18T12:29:23;8.32;;;3.95;;
18838;SDS011;9548;56.920;14.804;2022-08-18T12:31:51;5.85;;;3.90;;
18838;SDS011;9548;56.920;14.804;2022-08-18T12:34:21;6.15;;;3.97;;
18838;SDS011;9548;56.920;14.804;2022-08-18T12:36:51;5.65;;;3.78;;
18838;SDS011;9548;56.920;14.804;2022-08-18T12:39:20;5.15;;;3.58;;
18838;SDS011;9548;56.920;14.804;2022-08-18T12:41:47;3.92;;;3.42;;
18838;SDS011;9548;56.920;14.804;2022-08-18T12:44:14;4.22;;;3.80;;
18838;SDS011;9548;56.920;14.804;2022-08-18T12:46:41;4.85;;;3.42;;
18838;SDS011;9548;56.920;14.804;2022-08-18T12:49:09;5.00;;;3.30;;
18838;SDS011;9548;56.920;14.804;2022-08-18T12:51:42;6.57;;;3.55;;
18838;SDS011;9548;56.920;14.804;2022-08-18T12:54:09;4.72;;;3.47;;
18838;SDS011;9548;56.920;14.804;2022-08-18T12:56:36;7.50;;;3.63;;
18838;SDS011;9548;56.920;14.804;2022-08-18T12:59:04;3.95;;;3.55;;
18838;SDS011;9548;56.920;14.804;2022-08-18T13:01:33;4.57;;;4.07;;
18838;SDS011;9548;56.920;14.804;2022-08-18T13:04:02;4.40;;;4.00;;
18838;SDS011;9548;56.920;14.804;2022-08-18T13:06:30;3.72;;;3.42;;
18838;SDS011;9548;56.920;14.804;2022-08-18T13:09:02;4.95;;;3.22;;
18838;SDS011;9548;56.920;14.804;2022-08-18T13:11:29;5.25;;;2.90;;
18838;SDS011;9548;56.920;14.804;2022-08-18T13:13:56;6.00;;;2.80;;
18838;SDS011;9548;56.920;14.804;2022-08-18T13:16:23;9.32;;;3.25;;
18838;SDS011;9548;56.920;14.804;2022-08-18T13:19:01;3.25;;;2.90;;
18838;SDS011;9548;56.920;14.804;2022-08-18T13:21:28;4.72;;;2.90;;
18838;SDS011;9548;56.920;14.804;2022-08-18T13:23:55;3.28;;;2.50;;
18838;SDS011;9548;56.920;14.804;2022-08-18T13:26:25;2.75;;;2.40;;
18838;SDS011;9548;56.920;14.804;2022-08-18T13:28:53;3.67;;;2.50;;
18838;SDS011;9548;56.920;14.804;2022-08-18T13:31:20;7.80;;;2.80;;
18838;SDS011;9548;56.920;14.804;2022-08-18T13:33:47;3.40;;;2.50;;
18838;SDS011;9548;56.920;14.804;2022-08-18T13:36:15;5.22;;;2.58;;
18838;SDS011;9548;56.920;14.804;2022-08-18T13:38:42;8.00;;;3.00;;
18838;SDS011;9548;56.920;14.804;2022-08-18T13:41:09;7.78;;;3.00;;
18838;SDS011;9548;56.920;14.804;2022-08-18T13:43:39;4.32;;;3.20;;
18838;SDS011;9548;56.920;14.804;2022-08-18T13:46:08;5.53;;;3.10;;
18838;SDS011;9548;56.920;14.804;2022-08-18T13:48:36;4.40;;;2.88;;
18838;SDS011;9548;56.920;14.804;2022-08-18T13:51:04;5.00;;;3.10;;
18838;SDS011;9548;56.920;14.804;2022-08-18T13:53:34;3.80;;;3.45;;
18838;SDS011;9548;56.920;14.804;2022-08-18T13:56:02;4.93;;;3.75;;
18838;SDS011;9548;56.920;14.804;2022-08-18T13:58:29;3.92;;;3.40;;
18838;SDS011;9548;56.920;14.804;2022-08-18T14:00:59;3.42;;;3.13;;
18838;SDS011;9548;56.920;14.804;2022-08-18T14:03:28;4.88;;;3.10;;
18838;SDS011;9548;56.920;14.804;2022-08-18T14:05:56;6.10;;;3.20;;
18838;SDS011;9548;56.920;14.804;2022-08-18T14:08:24;3.42;;;3.13;;
18838;SDS011;9548;56.920;14.804;2022-08-18T14:10:52;3.47;;;3.17;;
18838;SDS011;9548;56.920;14.804;2022-08-18T14:13:22;4.38;;;3.17;;
18838;SDS011;9548;56.920;14.804;2022-08-18T14:15:49;4.70;;;3.08;;
18838;SDS011;9548;56.920;14.804;2022-08-18T14:18:19;4.63;;;3.85;;
18838;SDS011;9548;56.920;14.804;2022-08-18T14:20:46;4.07;;;3.25;;
18838;SDS011;9548;56.920;14.804;2022-08-18T14:23:30;3.58;;;3.28;;
18838;SDS011;9548;56.920;14.804;2022-08-18T14:26:15;5.80;;;3.63;;
18838;SDS011;9548;56.920;14.804;2022-08-18T14:28:59;4.95;;;3.30;;
18838;SDS011;9548;56.920;14.804;2022-08-18T14:31:26;3.75;;;3.40;;
18838;SDS011;9548;56.920;14.804;2022-08-18T14:33:54;5.97;;;3.67;;
18838;SDS011;9548;56.920;14.804;2022-08-18T14:36:21;6.28;;;3.40;;
18838;SDS011;9548;56.920;14.804;2022-08-18T14:38:49;3.78;;;3.38;;
18838;SDS011;9548;56.920;14.804;2022-08-18T14:41:16;5.00;;;3.38;;
18838;SDS011;9548;56.920;14.804;2022-08-18T14:43:44;3.40;;;3.10;;
18838;SDS011;9548;56.920;14.804;2022-08-18T14:46:11;3.58;;;3.13;;
18838;SDS011;9548;56.920;14.804;2022-08-18T14:48:38;5.95;;;3.45;;
18838;SDS011;9548;56.920;14.804;2022-08-18T14:51:07;5.50;;;3.30;;
18838;SDS011;9548;56.920;14.804;2022-08-18T14:53:35;7.72;;;3.40;;
18838;SDS011;9548;56.920;14.804;2022-08-18T14:56:03;4.38;;;3.25;;
18838;SDS011;9548;56.920;14.804;2022-08-18T14:58:32;3.60;;;3.30;;
18838;SDS011;9548;56.920;14.804;2022-08-18T15:01:01;4.55;;;3.30;;
18838;SDS011;9548;56.920;14.804;2022-08-18T15:03:31;3.88;;;3.40;;
18838;SDS011;9548;56.920;14.804;2022-08-18T15:06:01;4.57;;;3.40;;
18838;SDS011;9548;56.920;14.804;2022-08-18T15:08:31;3.40;;;3.15;;
18838;SDS011;9548;56.920;14.804;2022-08-18T15:10:59;3.70;;;3.40;;
18838;SDS011;9548;56.920;14.804;2022-08-18T15:13:27;5.65;;;3.35;;
18838;SDS011;9548;56.920;14.804;2022-08-18T15:15:54;6.88;;;3.35;;
18838;SDS011;9548;56.920;14.804;2022-08-18T15:18:21;6.20;;;3.72;;
18838;SDS011;9548;56.920;14.804;2022-08-18T15:20:48;7.97;;;3.80;;
18838;SDS011;9548;56.920;14.804;2022-08-18T15:23:35;3.90;;;3.60;;
18838;SDS011;9548;56.920;14.804;2022-08-18T15:26:19;4.80;;;3.35;;
18838;SDS011;9548;56.920;14.804;2022-08-18T15:28:49;5.95;;;3.45;;